Hovedside
METAR-TAF:

METAR-TAF

Lufthavner :

Léopold Sédar Senghor internasjonale lufthavn

Dakar, Senegal

breddegrad: 14-44N, lengdegrad: 017-30W, høyde over havet: 27 m

Gjeldene værobservasjon

Denne rapporten ble laget for 1 time og 15 minutter siden, klokken 03:00 UTC
Vind 10 kt fra Nord
Temperatur 21°C
Luftfuktighet 78%
Trykk 1012 hPa
Sikt 10 km eller mer
ingen skyer under 1500 m og ingen bygeskyer

METAR: GOOY 290300Z 36010KT CAVOK 21/17 Q1012

Tid: 04:15 (04:15 UTC)

Varsel

Denne rapporten ble laget for 5 timer og 0 minutter siden, klokken 23:15 UTC
Varsel gyldig fra 29. klokken 00 UTC til 30. klokken 06 UTC
Vind 14 kt fra Nord
Sikt 10 km eller mer
ingen skyer under 1500 m og ingen bygeskyer

TAF: GOOY 282315Z 2900/3006 01014KT CAVOK

Værobservasjoner og værvarsel for over 4000 flyplasser (METAR- og TAF-rapporter).

Tilgjengelige stasjoner er representert av de røde og gule prikkene på kartet.

Hold musepekeren over prikken for å se navnet på stasjonen.

Klikk så for å se værobservasjoner og -varsler.

For å forandre kartet kan du klikke på den grønne knappen med svart kryss for å zoome inn, på den grønne knappen med strek for å zoome ut, eller på de grønne pilene for å se tilstøtende kart.


METAR-TAF: